Time;durP1;ratioP1;P1;durP2;ratioP2;P2;SDS_P1;SDS_P2;PMS_P1;PMS_P2;Temp;Humidity;BMP_temperature;BMP_pressure;BME280_temperature;BME280_humidity;BME280_pressure;Samples;Min_cycle;Max_cycle;Signal;HPM_P1;HPM_P2
2024/03/02 00:00:21;;;;;;;18.70;18.10;;;21.30;53.30;;;;;;4981466;28;20526;-67
2024/03/02 00:02:51;;;;;;;19.40;18.70;;;21.30;53.30;;;;;;4982989;28;20478;-66
2024/03/02 00:05:22;;;;;;;19.20;18.50;;;21.30;53.30;;;;;;4984747;28;20450;-71
2024/03/02 00:07:55;;;;;;;19.37;18.67;;;21.30;52.80;;;;;;4982311;28;20463;-71
2024/03/02 00:10:29;;;;;;;20.00;18.83;;;21.20;51.80;;;;;;4981436;28;20873;-69
2024/03/02 00:12:56;;;;;;;19.67;18.97;;;21.10;51.70;;;;;;4983059;28;20906;-70
2024/03/02 00:15:42;;;;;;;19.20;18.50;;;21.10;51.70;;;;;;4984610;28;20878;-71
2024/03/02 00:18:11;;;;;;;19.07;18.27;;;21.10;51.80;;;;;;4979494;28;20952;-71
2024/03/02 00:20:40;;;;;;;18.60;18.00;;;21.00;51.80;;;;;;4981379;28;20459;-74
2024/03/02 00:23:09;;;;;;;19.30;18.70;;;21.00;51.90;;;;;;4984331;28;20817;-71
2024/03/02 00:25:40;;;;;;;19.47;18.77;;;21.00;51.90;;;;;;4983745;28;20454;-70
2024/03/02 00:28:17;;;;;;;19.20;18.50;;;20.90;51.80;;;;;;4981090;28;20448;-71
2024/03/02 00:30:57;;;;;;;19.10;18.40;;;20.90;51.90;;;;;;4981953;28;20530;-70
2024/03/02 00:33:27;;;;;;;18.80;18.20;;;20.90;51.90;;;;;;4984161;28;20621;-71
2024/03/02 00:35:56;;;;;;;19.00;18.30;;;20.90;52.00;;;;;;4981253;28;21055;-70
2024/03/02 00:38:23;;;;;;;18.80;18.10;;;20.80;51.90;;;;;;4980511;28;20455;-71
2024/03/02 00:40:51;;;;;;;18.70;18.10;;;20.80;51.90;;;;;;4982817;28;20478;-72
2024/03/02 00:43:48;;;;;;;18.83;18.23;;;20.80;52.00;;;;;;4984131;28;20467;-71
2024/03/02 00:46:18;;;;;;;19.40;18.70;;;20.80;52.00;;;;;;4976845;28;20460;-71
2024/03/02 00:48:55;;;;;;;19.53;18.83;;;20.80;52.10;;;;;;4982213;28;20452;-71
2024/03/02 00:51:27;;;;;;;19.13;18.43;;;20.70;52.00;;;;;;4983758;28;20453;-71
2024/03/02 00:53:56;;;;;;;19.10;18.40;;;20.70;52.10;;;;;;4981525;28;20482;-70
2024/03/02 00:56:23;;;;;;;19.00;18.40;;;20.70;52.00;;;;;;4980464;28;20483;-70
2024/03/02 00:58:50;;;;;;;19.33;18.57;;;20.70;52.60;;;;;;4982651;28;20471;-70
2024/03/02 01:01:17;;;;;;;18.77;18.07;;;20.70;52.10;;;;;;4983615;28;20939;-70
2024/03/02 01:03:44;;;;;;;19.83;19.13;;;20.70;52.10;;;;;;4975798;28;20503;-70
2024/03/02 01:06:11;;;;;;;18.63;18.03;;;20.70;52.10;;;;;;4984080;28;20478;-71
2024/03/02 01:08:40;;;;;;;18.90;18.27;;;20.60;52.10;;;;;;4983768;28;20916;-70
2024/03/02 01:11:07;;;;;;;18.70;18.00;;;20.60;52.10;;;;;;4980263;28;20447;-70
2024/03/02 01:13:34;;;;;;;19.07;18.40;;;20.60;52.20;;;;;;4980366;23;20487;-71
2024/03/02 01:16:01;;;;;;;18.60;17.90;;;20.60;52.20;;;;;;4961268;28;20441;-71
2024/03/02 01:18:28;;;;;;;18.63;18.03;;;20.60;52.20;;;;;;4961187;28;20798;-71
2024/03/02 01:20:56;;;;;;;18.80;18.10;;;20.60;52.20;;;;;;4963265;28;21012;-70
2024/03/02 01:23:23;;;;;;;18.40;17.80;;;20.60;52.20;;;;;;4965275;28;20470;-71
2024/03/02 01:25:52;;;;;;;18.97;18.27;;;20.60;52.30;;;;;;4966554;28;20463;-71
2024/03/02 01:28:20;;;;;;;18.77;18.07;;;20.50;52.20;;;;;;4969983;28;20446;-70
2024/03/02 01:30:47;;;;;;;19.33;18.63;;;20.50;52.30;;;;;;4966444;28;20451;-71
2024/03/02 01:33:14;;;;;;;18.70;18.00;;;20.50;52.30;;;;;;4969130;28;20463;-70
2024/03/02 01:35:41;;;;;;;18.53;17.83;;;20.50;52.30;;;;;;4967500;28;20487;-71
2024/03/02 01:38:08;;;;;;;18.63;17.93;;;20.50;52.30;;;;;;4964724;28;20444;-70
2024/03/02 01:40:35;;;;;;;18.57;17.87;;;20.50;52.40;;;;;;4964662;28;20453;-71
2024/03/02 01:43:05;;;;;;;18.73;18.03;;;20.50;52.50;;;;;;4967502;28;20554;-70
2024/03/02 01:45:32;;;;;;;18.70;18.10;;;20.50;52.50;;;;;;4968116;28;20455;-70
2024/03/02 01:48:00;;;;;;;18.43;17.77;;;20.40;52.40;;;;;;4964908;28;20441;-70
2024/03/02 01:50:28;;;;;;;18.53;17.93;;;20.40;52.40;;;;;;4964900;28;20787;-70
2024/03/02 01:52:55;;;;;;;18.50;17.90;;;20.40;52.40;;;;;;4966365;28;20472;-71
2024/03/02 01:55:23;;;;;;;19.13;18.53;;;20.40;52.50;;;;;;4967743;28;20491;-71
2024/03/02 01:57:51;;;;;;;18.10;17.50;;;20.40;52.50;;;;;;4966174;28;20484;-70
2024/03/02 02:00:21;;;;;;;18.60;17.90;;;20.40;52.50;;;;;;4964834;28;20457;-71
2024/03/02 02:02:48;;;;;;;20.60;19.90;;;20.40;52.60;;;;;;4965133;28;20488;-70
2024/03/02 02:05:16;;;;;;;24.10;23.20;;;20.40;52.60;;;;;;4967688;28;20448;-71
2024/03/02 02:07:43;;;;;;;22.83;22.03;;;20.40;52.60;;;;;;4966763;28;20455;-71
2024/03/02 02:10:10;;;;;;;22.77;22.00;;;20.30;52.50;;;;;;4964400;28;20456;-71
2024/03/02 02:12:38;;;;;;;22.30;21.60;;;20.40;52.60;;;;;;4963755;28;20559;-71
2024/03/02 02:15:21;;;;;;;22.80;22.00;;;20.30;52.60;;;;;;4967163;28;20475;-71
2024/03/02 02:17:49;;;;;;;22.57;21.77;;;20.40;52.70;;;;;;4966070;28;20845;-71
2024/03/02 02:20:16;;;;;;;23.20;22.40;;;20.30;52.60;;;;;;4964288;28;21092;-71
2024/03/02 02:22:56;;;;;;;22.50;21.80;;;20.30;52.60;;;;;;4965019;28;20468;-70
2024/03/02 02:25:22;;;;;;;22.10;21.30;;;20.30;52.60;;;;;;4967501;28;20517;-70
2024/03/02 02:27:49;;;;;;;22.70;21.90;;;20.30;52.70;;;;;;4965930;28;20452;-70
2024/03/02 02:30:20;;;;;;;22.90;22.10;;;20.30;52.60;;;;;;4964013;28;20490;-70
2024/03/02 02:32:47;;;;;;;22.23;21.53;;;20.30;52.70;;;;;;4964383;28;20520;-71
2024/03/02 02:35:14;;;;;;;22.70;21.93;;;20.30;52.70;;;;;;4966110;28;20856;-71
2024/03/02 02:37:42;;;;;;;18.90;18.20;;;20.30;52.80;;;;;;4966748;28;20452;-70
2024/03/02 02:40:12;;;;;;;18.67;18.07;;;20.30;52.70;;;;;;4963862;28;20476;-71
2024/03/02 02:42:39;;;;;;;18.90;18.30;;;20.30;52.80;;;;;;4963489;28;20978;-70
2024/03/02 02:45:06;;;;;;;19.50;18.70;;;20.20;52.70;;;;;;4966747;28;20440;-70
2024/03/02 02:47:34;;;;;;;18.50;17.90;;;20.20;52.70;;;;;;4967044;28;20448;-70
2024/03/02 02:50:02;;;;;;;18.97;18.27;;;20.20;52.80;;;;;;4971689;28;20449;-70
2024/03/02 02:52:33;;;;;;;18.97;18.27;;;20.20;52.80;;;;;;4963329;28;20500;-70
2024/03/02 02:55:00;;;;;;;18.37;17.77;;;20.20;52.80;;;;;;4965750;28;20481;-71
2024/03/02 02:57:30;;;;;;;18.50;17.90;;;20.20;52.80;;;;;;4966942;28;20444;-71
2024/03/02 02:59:57;;;;;;;18.77;18.10;;;20.30;52.90;;;;;;4965293;28;20538;-71
2024/03/02 03:02:24;;;;;;;18.80;18.17;;;20.20;52.90;;;;;;4963163;28;20472;-71
2024/03/02 03:04:50;;;;;;;18.97;18.30;;;20.20;52.90;;;;;;4964663;28;20480;-70
2024/03/02 03:07:17;;;;;;;19.03;18.43;;;20.20;52.90;;;;;;4966075;28;20790;-70
2024/03/02 03:09:44;;;;;;;18.93;18.33;;;20.20;52.90;;;;;;4966540;28;20812;-70
2024/03/02 03:12:11;;;;;;;18.60;18.00;;;20.20;52.90;;;;;;4966055;28;20984;-71
2024/03/02 03:14:41;;;;;;;19.07;18.37;;;20.20;53.00;;;;;;4966545;28;20480;-70
2024/03/02 03:17:08;;;;;;;18.73;18.13;;;20.20;53.00;;;;;;4966042;28;20445;-71
2024/03/02 03:19:35;;;;;;;18.77;18.17;;;20.20;53.00;;;;;;4967318;28;20462;-70
2024/03/02 03:22:03;;;;;;;18.97;18.37;;;20.20;53.00;;;;;;4965208;28;20819;-70
2024/03/02 03:24:30;;;;;;;19.10;18.50;;;20.20;53.00;;;;;;4966384;28;20530;-70
2024/03/02 03:26:57;;;;;;;18.93;18.33;;;20.20;53.00;;;;;;4964641;28;20455;-71
2024/03/02 03:29:24;;;;;;;19.27;18.60;;;20.10;52.90;;;;;;4962877;28;20891;-70
2024/03/02 03:31:52;;;;;;;18.80;18.20;;;20.10;53.00;;;;;;4963292;28;20480;-70
2024/03/02 03:34:19;;;;;;;19.47;18.73;;;20.10;53.00;;;;;;4965975;28;20992;-70
2024/03/02 03:36:46;;;;;;;20.27;19.50;;;20.10;53.00;;;;;;4965876;28;20479;-70
2024/03/02 03:39:13;;;;;;;19.00;18.30;;;20.10;53.10;;;;;;4963107;28;21054;-70
2024/03/02 03:41:41;;;;;;;19.73;19.03;;;20.10;53.10;;;;;;4962198;28;20460;-70
2024/03/02 03:44:09;;;;;;;19.40;18.70;;;20.10;53.10;;;;;;4965716;28;20444;-70
2024/03/02 03:46:36;;;;;;;19.03;18.43;;;20.10;53.10;;;;;;4965921;28;20934;-70
2024/03/02 03:49:05;;;;;;;19.10;18.50;;;20.10;53.10;;;;;;4963223;28;20447;-70
2024/03/02 03:51:32;;;;;;;19.07;18.47;;;20.10;53.20;;;;;;4962056;28;20464;-70
2024/03/02 03:53:59;;;;;;;19.10;18.50;;;20.10;53.20;;;;;;4964218;28;20468;-70
2024/03/02 03:56:25;;;;;;;19.33;18.73;;;20.10;53.20;;;;;;4965655;28;20480;-71
2024/03/02 03:58:52;;;;;;;19.10;18.50;;;20.10;53.20;;;;;;4967304;28;20939;-70
2024/03/02 04:01:22;;;;;;;19.50;18.80;;;20.10;53.20;;;;;;4968209;28;20448;-70
2024/03/02 04:03:49;;;;;;;19.83;19.13;;;20.10;53.20;;;;;;4962474;28;20468;-71
2024/03/02 04:06:17;;;;;;;19.60;18.87;;;20.10;53.20;;;;;;4965493;28;20810;-71
2024/03/02 04:08:44;;;;;;;19.27;18.67;;;20.10;53.20;;;;;;4965477;28;20450;-71
2024/03/02 04:11:11;;;;;;;19.40;18.70;;;20.10;53.20;;;;;;4953888;28;20456;-71
2024/03/02 04:13:38;;;;;;;19.57;18.87;;;20.10;53.30;;;;;;4961892;28;20492;-70
2024/03/02 04:16:06;;;;;;;19.10;18.47;;;20.10;53.30;;;;;;4964519;28;22973;-71
2024/03/02 04:18:32;;;;;;;19.40;18.70;;;20.10;53.30;;;;;;4965551;28;20467;-71
2024/03/02 04:20:59;;;;;;;19.70;19.00;;;20.10;53.30;;;;;;4962956;28;20447;-71
2024/03/02 04:23:27;;;;;;;19.47;18.77;;;20.10;53.30;;;;;;4961951;28;20690;-71
2024/03/02 04:25:55;;;;;;;19.87;19.07;;;20.00;53.20;;;;;;4962854;28;20446;-70
2024/03/02 04:28:22;;;;;;;19.10;18.40;;;20.10;53.30;;;;;;4965501;28;20452;-71
2024/03/02 04:30:49;;;;;;;20.10;19.20;;;20.00;53.20;;;;;;4964400;28;20457;-72
2024/03/02 04:33:17;;;;;;;19.43;18.73;;;20.00;53.20;;;;;;4961727;28;20464;-70
2024/03/02 04:35:43;;;;;;;19.70;19.00;;;20.00;53.20;;;;;;4961549;28;20504;-71
2024/03/02 04:38:11;;;;;;;19.57;18.87;;;20.00;53.20;;;;;;4964920;28;20439;-70
2024/03/02 04:40:39;;;;;;;19.80;19.10;;;20.00;53.20;;;;;;4972610;28;20451;-71
2024/03/02 04:43:06;;;;;;;20.30;19.60;;;20.00;53.20;;;;;;4962399;28;20478;-71
2024/03/02 04:45:32;;;;;;;19.57;18.87;;;20.10;53.30;;;;;;4961628;28;20899;-70
2024/03/02 04:47:59;;;;;;;19.50;18.80;;;20.00;53.20;;;;;;4963614;28;20457;-70
2024/03/02 04:50:26;;;;;;;19.40;18.70;;;20.00;53.20;;;;;;4964926;28;20448;-70
2024/03/02 04:52:53;;;;;;;19.90;19.20;;;20.00;53.20;;;;;;4963404;28;21051;-70
2024/03/02 04:55:52;;;;;;;19.70;19.00;;;20.00;53.30;;;;;;4961492;28;20564;-71
2024/03/02 04:58:14;;;;;;;19.50;18.80;;;20.00;53.30;;;;;;4967954;28;20532;-70
2024/03/02 05:00:42;;;;;;;19.90;19.20;;;20.00;53.30;;;;;;4965098;28;20455;-70
2024/03/02 05:03:09;;;;;;;20.20;19.50;;;20.00;53.40;;;;;;4961689;28;20532;-70
2024/03/02 05:05:37;;;;;;;19.87;19.17;;;20.00;53.50;;;;;;4961472;28;20813;-70
2024/03/02 05:08:04;;;;;;;20.10;19.40;;;20.00;53.50;;;;;;4963749;28;20487;-70
2024/03/02 05:10:30;;;;;;;20.83;20.10;;;20.00;53.50;;;;;;4964675;28;20440;-70
2024/03/02 05:12:59;;;;;;;20.20;19.50;;;20.10;53.60;;;;;;4962769;28;20471;-70
2024/03/02 05:15:28;;;;;;;20.73;20.03;;;20.00;53.60;;;;;;4961594;28;20481;-71
2024/03/02 05:17:56;;;;;;;20.43;19.73;;;20.00;53.60;;;;;;4962434;28;20881;-70
2024/03/02 05:20:23;;;;;;;20.70;19.90;;;20.00;53.60;;;;;;4964972;28;20452;-71
2024/03/02 05:22:50;;;;;;;20.20;19.40;;;20.00;53.50;;;;;;4964659;28;20474;-70
2024/03/02 05:25:17;;;;;;;20.47;19.77;;;20.00;53.60;;;;;;4961351;28;20452;-70
2024/03/02 05:27:43;;;;;;;20.43;19.73;;;20.00;53.50;;;;;;4961360;28;20451;-71
2024/03/02 05:30:11;;;;;;;20.23;19.53;;;20.00;53.60;;;;;;4963859;28;20813;-70
2024/03/02 05:32:39;;;;;;;20.20;19.50;;;20.00;53.60;;;;;;4963892;28;20475;-70
2024/03/02 05:35:07;;;;;;;20.00;19.30;;;20.00;53.60;;;;;;4962058;28;20492;-70
2024/03/02 05:37:35;;;;;;;20.60;19.80;;;20.10;53.70;;;;;;4961365;28;20449;-70
2024/03/02 05:40:01;;;;;;;20.60;19.87;;;20.10;53.70;;;;;;4967672;28;20527;-70
2024/03/02 05:42:29;;;;;;;20.30;19.60;;;20.10;53.70;;;;;;4960687;28;20978;-70
2024/03/02 05:44:57;;;;;;;20.83;20.03;;;20.10;53.70;;;;;;4961895;28;20846;-69
2024/03/02 05:47:24;;;;;;;20.50;19.80;;;20.10;53.70;;;;;;4964236;28;20448;-70
2024/03/02 05:49:52;;;;;;;21.03;20.13;;;20.10;53.70;;;;;;4969649;28;20464;-70
2024/03/02 05:52:20;;;;;;;20.23;19.53;;;20.10;53.70;;;;;;4960390;28;20836;-71
2024/03/02 05:54:48;;;;;;;20.07;19.37;;;20.10;53.70;;;;;;4960849;28;20456;-70
2024/03/02 05:57:31;;;;;;;20.53;19.83;;;20.10;53.70;;;;;;4964226;28;20459;-70
2024/03/02 05:59:58;;;;;;;20.03;19.33;;;20.10;53.70;;;;;;4963453;28;20855;-70
2024/03/02 06:02:25;;;;;;;23.40;22.60;;;20.10;53.70;;;;;;4963844;28;20468;-70
2024/03/02 06:04:55;;;;;;;23.03;22.20;;;20.10;53.70;;;;;;4963745;28;20777;-70
2024/03/02 06:07:22;;;;;;;19.60;18.90;;;20.10;53.70;;;;;;4960831;28;20979;-70
2024/03/02 06:09:52;;;;;;;20.00;19.30;;;20.10;53.70;;;;;;4968651;28;20447;-70
2024/03/02 06:12:19;;;;;;;20.63;19.83;;;20.10;53.70;;;;;;4956287;28;20480;-70
2024/03/02 06:14:47;;;;;;;18.90;18.20;;;20.10;53.80;;;;;;4964060;28;20507;-70
2024/03/02 06:17:14;;;;;;;19.60;18.90;;;20.10;53.70;;;;;;4966988;28;20797;-71
2024/03/02 06:19:41;;;;;;;20.70;19.70;;;20.10;53.80;;;;;;4967937;28;20448;-70
2024/03/02 06:22:10;;;;;;;20.03;19.33;;;20.10;53.90;;;;;;4964576;28;20499;-71
2024/03/02 06:24:37;;;;;;;20.30;19.60;;;20.10;53.90;;;;;;4964107;28;20452;-70
2024/03/02 06:27:05;;;;;;;20.30;19.60;;;20.20;54.10;;;;;;4965753;28;20440;-70
2024/03/02 06:29:33;;;;;;;20.27;19.37;;;20.20;54.10;;;;;;4967384;28;20817;-70
2024/03/02 06:32:00;;;;;;;19.47;18.77;;;20.20;54.20;;;;;;4965594;28;20455;-70
2024/03/02 06:34:27;;;;;;;19.80;19.10;;;20.20;54.30;;;;;;4964077;28;20448;-71
2024/03/02 06:36:53;;;;;;;20.37;19.57;;;20.20;54.30;;;;;;4963923;28;20477;-70
2024/03/02 06:39:21;;;;;;;20.10;19.30;;;20.20;54.40;;;;;;4967419;28;20953;-70
2024/03/02 06:41:48;;;;;;;20.20;19.30;;;20.20;54.40;;;;;;4967222;28;20458;-70
2024/03/02 06:44:15;;;;;;;19.73;19.03;;;20.20;54.50;;;;;;4964390;28;20441;-70
2024/03/02 06:46:42;;;;;;;19.87;19.17;;;20.20;54.50;;;;;;4964500;28;20448;-70
2024/03/02 06:49:10;;;;;;;20.40;19.60;;;20.20;54.50;;;;;;4965705;28;20463;-70
2024/03/02 06:51:37;;;;;;;20.30;19.50;;;20.30;54.60;;;;;;4966444;28;20953;-70
2024/03/02 06:54:04;;;;;;;20.70;19.90;;;20.20;54.60;;;;;;4965177;28;20933;-70
2024/03/02 06:56:33;;;;;;;20.60;19.80;;;20.30;54.60;;;;;;4963603;28;20487;-70
2024/03/02 06:59:01;;;;;;;20.67;19.87;;;20.30;54.60;;;;;;4964360;28;20495;-70
2024/03/02 07:01:28;;;;;;;20.97;20.07;;;20.30;54.70;;;;;;4966206;28;20447;-70
2024/03/02 07:03:54;;;;;;;21.03;20.23;;;20.30;54.70;;;;;;4966323;28;20475;-70
2024/03/02 07:06:21;;;;;;;21.50;20.70;;;20.30;54.70;;;;;;4963247;28;20456;-70
2024/03/02 07:08:48;;;;;;;20.00;19.30;;;20.30;54.60;;;;;;4966732;28;20441;-70
2024/03/02 07:11:14;;;;;;;21.27;20.37;;;20.30;54.70;;;;;;4965373;28;20452;-70
2024/03/02 07:13:43;;;;;;;20.90;20.10;;;20.30;55.20;;;;;;4966405;28;20856;-70
2024/03/02 07:18:55;;;;;;;20.60;19.80;;;20.30;54.70;;;;;;4963140;28;20523;-70
2024/03/02 07:21:22;;;;;;;20.73;19.93;;;20.40;54.80;;;;;;4965622;28;20452;-70
2024/03/02 07:23:49;;;;;;;20.70;19.90;;;20.40;54.70;;;;;;4966238;28;20470;-70
2024/03/02 07:26:16;;;;;;;21.30;20.50;;;20.40;54.80;;;;;;4965743;28;20447;-70
2024/03/02 07:28:44;;;;;;;20.80;20.00;;;20.40;54.80;;;;;;4973596;28;20451;-70
2024/03/02 07:31:11;;;;;;;20.50;19.80;;;20.40;54.70;;;;;;4963488;28;20458;-70
2024/03/02 07:33:38;;;;;;;21.00;20.20;;;20.40;54.80;;;;;;4962699;28;20464;-70
2024/03/02 07:36:06;;;;;;;22.17;21.33;;;20.40;54.80;;;;;;4969642;28;20511;-70
2024/03/02 07:38:35;;;;;;;21.10;20.30;;;20.40;54.80;;;;;;4962567;28;20460;-70
2024/03/02 07:41:02;;;;;;;20.70;20.00;;;20.40;54.70;;;;;;4963054;28;20441;-70
2024/03/02 07:43:29;;;;;;;20.60;19.90;;;20.40;54.70;;;;;;4965771;28;20983;-70
2024/03/02 07:45:57;;;;;;;20.87;20.13;;;20.40;54.80;;;;;;4965800;28;20447;-70
2024/03/02 07:48:25;;;;;;;21.80;21.00;;;20.50;54.80;;;;;;4962600;28;20938;-70
2024/03/02 07:50:51;;;;;;;21.20;20.40;;;20.50;54.90;;;;;;4962180;28;20544;-70
2024/03/02 07:53:19;;;;;;;20.80;20.10;;;20.50;54.90;;;;;;4964688;28;20482;-71
2024/03/02 07:55:46;;;;;;;21.87;21.07;;;20.50;54.90;;;;;;4966895;28;20489;-70
2024/03/02 07:58:14;;;;;;;21.33;20.53;;;20.50;54.90;;;;;;4964468;28;20476;-70
2024/03/02 08:00:41;;;;;;;20.50;19.80;;;20.50;54.90;;;;;;4965462;28;20459;-70
2024/03/02 08:03:10;;;;;;;21.20;20.20;;;20.50;54.80;;;;;;4963761;28;20965;-70
2024/03/02 08:05:38;;;;;;;20.70;19.90;;;20.50;54.90;;;;;;4962523;28;20441;-70
2024/03/02 08:08:06;;;;;;;21.40;20.60;;;20.50;54.90;;;;;;4963306;28;21061;-71
2024/03/02 08:10:33;;;;;;;21.33;20.53;;;20.50;54.90;;;;;;4965464;28;20452;-70
2024/03/02 08:13:00;;;;;;;20.70;19.90;;;20.60;54.90;;;;;;4964056;28;20499;-70
2024/03/02 08:15:27;;;;;;;20.63;19.93;;;20.60;55.40;;;;;;4965660;28;20447;-70
2024/03/02 08:17:53;;;;;;;20.80;20.10;;;20.60;54.90;;;;;;4961937;28;20441;-70
2024/03/02 08:20:21;;;;;;;20.70;20.00;;;20.60;54.90;;;;;;4964951;28;20436;-71
2024/03/02 08:22:48;;;;;;;21.30;20.50;;;20.60;54.90;;;;;;4964829;28;20483;-71
2024/03/02 08:25:15;;;;;;;20.70;20.00;;;20.60;54.90;;;;;;4963035;28;20452;-70
2024/03/02 08:27:42;;;;;;;20.43;19.73;;;20.60;54.80;;;;;;4961856;28;20985;-70
2024/03/02 08:30:10;;;;;;;20.60;19.90;;;20.60;54.80;;;;;;4963709;28;20457;-70
2024/03/02 08:32:37;;;;;;;20.77;19.97;;;20.60;54.80;;;;;;4964337;28;20460;-71
2024/03/02 08:35:05;;;;;;;21.40;20.60;;;20.60;54.90;;;;;;4964163;28;20455;-71
2024/03/02 08:37:34;;;;;;;22.30;21.50;;;20.70;54.90;;;;;;4961596;28;20480;-70
2024/03/02 08:40:01;;;;;;;22.00;21.00;;;20.60;54.80;;;;;;4961999;28;20452;-71
2024/03/02 08:42:27;;;;;;;22.33;21.43;;;20.70;54.90;;;;;;4964709;28;20467;-71
2024/03/02 08:44:54;;;;;;;21.57;20.77;;;20.70;55.00;;;;;;4965133;28;20451;-70
2024/03/02 08:47:22;;;;;;;21.80;21.00;;;20.70;55.00;;;;;;4961927;28;20433;-70
2024/03/02 08:49:48;;;;;;;21.10;20.30;;;20.70;55.00;;;;;;4961803;28;20942;-70
2024/03/02 08:52:15;;;;;;;21.27;20.47;;;20.70;55.10;;;;;;4963269;28;20476;-70
2024/03/02 08:54:43;;;;;;;22.27;21.47;;;20.70;55.00;;;;;;4965145;28;20448;-71
2024/03/02 08:57:10;;;;;;;21.07;20.27;;;20.70;54.90;;;;;;4963284;28;20490;-70
2024/03/02 08:59:37;;;;;;;21.50;20.70;;;20.70;54.90;;;;;;4961689;28;20445;-70
2024/03/02 09:02:04;;;;;;;21.50;20.60;;;20.80;55.10;;;;;;4961001;28;20459;-70
2024/03/02 09:04:31;;;;;;;21.63;20.83;;;20.80;55.30;;;;;;4968637;28;20818;-70
2024/03/02 09:06:58;;;;;;;22.83;21.80;;;20.80;55.40;;;;;;4961594;28;20946;-70
2024/03/02 09:09:24;;;;;;;24.30;22.53;;;20.80;55.50;;;;;;4961633;28;20444;-70
2024/03/02 09:11:54;;;;;;;23.20;22.00;;;20.80;55.90;;;;;;4960797;28;20448;-70
2024/03/02 09:14:21;;;;;;;24.53;22.90;;;20.90;56.30;;;;;;4968696;28;20451;-70
2024/03/02 09:16:48;;;;;;;26.13;23.80;;;20.90;58.20;;;;;;4961400;28;20557;-67
2024/03/02 09:19:15;;;;;;;23.80;22.50;;;20.90;61.40;;;;;;4963455;28;20457;-68
2024/03/02 09:21:43;;;;;;;26.13;24.43;;;21.00;67.00;;;;;;4964785;28;20436;-67
2024/03/02 09:24:10;;;;;;;25.10;22.70;;;20.90;65.30;;;;;;4963284;28;20491;-65
2024/03/02 09:26:37;;;;;;;23.37;22.00;;;21.00;67.40;;;;;;4965080;28;20956;-65
2024/03/02 09:29:05;;;;;;;23.40;21.73;;;21.00;67.80;;;;;;4964056;28;20965;-65
2024/03/02 09:31:32;;;;;;;25.33;23.13;;;21.00;66.30;;;;;;4963961;28;20436;-64
2024/03/02 09:33:59;;;;;;;23.70;22.10;;;21.00;65.00;;;;;;4964531;28;20552;-64
2024/03/02 09:36:26;;;;;;;24.33;22.83;;;21.00;64.90;;;;;;4961020;28;20488;-64
2024/03/02 09:38:53;;;;;;;23.63;22.23;;;21.00;64.30;;;;;;4961243;28;20440;-64
2024/03/02 09:41:20;;;;;;;24.53;22.50;;;21.00;63.80;;;;;;4962995;28;20460;-65
2024/03/02 09:43:47;;;;;;;25.17;23.67;;;21.00;63.90;;;;;;4964326;28;20468;-65
2024/03/02 09:46:16;;;;;;;23.83;22.43;;;21.00;63.50;;;;;;4966557;28;20444;-65
2024/03/02 09:48:45;;;;;;;23.37;22.17;;;21.10;63.20;;;;;;4964516;28;20449;-70
2024/03/02 09:51:12;;;;;;;24.73;23.13;;;21.10;64.00;;;;;;4965691;28;20456;-68
2024/03/02 09:53:40;;;;;;;27.73;23.23;;;21.10;63.90;;;;;;4967822;28;20467;-64
2024/03/02 09:56:07;;;;;;;24.00;22.60;;;21.10;64.00;;;;;;4966995;28;20444;-65
2024/03/02 09:58:34;;;;;;;23.37;22.17;;;21.10;63.30;;;;;;4964414;28;20445;-65
2024/03/02 10:01:01;;;;;;;24.47;23.07;;;21.10;62.80;;;;;;4964154;28;20457;-66
2024/03/02 10:03:32;;;;;;;23.50;21.73;;;21.20;62.40;;;;;;4958778;28;20522;-67
2024/03/02 10:06:22;;;;;;;23.50;22.37;;;21.10;61.90;;;;;;4967605;28;20455;-66
2024/03/02 10:08:49;;;;;;;24.13;22.73;;;21.20;61.70;;;;;;4959252;28;20927;-65
2024/03/02 10:11:37;;;;;;;22.70;21.50;;;21.20;61.70;;;;;;4965797;28;20440;-65
2024/03/02 10:14:08;;;;;;;24.67;23.07;;;21.20;61.50;;;;;;4967281;28;20533;-65
2024/03/02 10:16:37;;;;;;;24.50;23.13;;;21.20;61.70;;;;;;4967415;28;20909;-64
2024/03/02 10:19:22;;;;;;;23.50;21.60;;;21.20;61.10;;;;;;4967302;28;20460;-66
2024/03/02 10:21:50;;;;;;;23.20;22.10;;;21.30;61.20;;;;;;4964058;28;20508;-65
2024/03/02 10:24:17;;;;;;;23.27;22.00;;;21.30;61.20;;;;;;4965860;28;20656;-70
2024/03/02 10:26:43;;;;;;;23.53;22.33;;;21.30;61.00;;;;;;4967217;28;20447;-70
2024/03/02 10:29:11;;;;;;;24.57;22.87;;;21.30;61.10;;;;;;4966122;28;20933;-70
2024/03/02 10:31:39;;;;;;;23.37;22.17;;;21.40;61.10;;;;;;4963598;28;20503;-70
2024/03/02 10:34:06;;;;;;;22.77;21.57;;;21.40;61.10;;;;;;4964300;28;20445;-70
2024/03/02 10:36:36;;;;;;;23.40;22.03;;;21.40;60.90;;;;;;4967123;28;21062;-70
2024/03/02 10:39:04;;;;;;;22.53;21.17;;;21.40;60.70;;;;;;4967395;28;20444;-70
2024/03/02 10:41:33;;;;;;;22.17;21.13;;;21.40;60.70;;;;;;4955705;28;20806;-70
2024/03/02 10:44:03;;;;;;;24.67;22.83;;;21.40;60.50;;;;;;4963714;28;20480;-70
2024/03/02 10:46:31;;;;;;;22.07;21.07;;;21.40;60.30;;;;;;4966964;28;20435;-70
2024/03/02 10:48:59;;;;;;;22.30;21.20;;;21.50;60.40;;;;;;4966903;28;20820;-70
2024/03/02 10:51:28;;;;;;;22.10;21.10;;;21.50;60.20;;;;;;4963508;28;20449;-70
2024/03/02 10:53:57;;;;;;;23.00;21.70;;;21.50;60.10;;;;;;4963521;28;20524;-70
2024/03/02 10:56:29;;;;;;;22.90;21.30;;;21.50;60.00;;;;;;4964681;28;20463;-70
2024/03/02 10:59:03;;;;;;;22.40;21.30;;;21.50;60.00;;;;;;4971161;28;20448;-70
2024/03/02 11:01:32;;;;;;;23.00;21.93;;;21.50;60.00;;;;;;4966297;28;20436;-70
2024/03/02 11:03:59;;;;;;;23.27;21.93;;;21.50;60.00;;;;;;4966655;28;20980;-70
2024/03/02 11:06:28;;;;;;;22.93;21.67;;;21.50;59.90;;;;;;4963846;28;20437;-70
2024/03/02 11:09:03;;;;;;;21.90;20.80;;;21.50;59.90;;;;;;4963609;28;20816;-70
2024/03/02 11:11:34;;;;;;;21.33;20.53;;;21.60;59.80;;;;;;4966007;28;20929;-71
2024/03/02 11:14:08;;;;;;;22.20;21.30;;;21.60;59.70;;;;;;4966452;28;20472;-70
2024/03/02 11:16:36;;;;;;;22.20;21.10;;;21.60;59.70;;;;;;4963157;28;20524;-70
2024/03/02 11:19:06;;;;;;;22.87;21.90;;;21.60;59.70;;;;;;4963210;28;20453;-69
2024/03/02 11:21:35;;;;;;;23.27;22.20;;;21.60;59.70;;;;;;4955097;28;20441;-70
2024/03/02 11:24:32;;;;;;;21.80;20.90;;;21.60;59.70;;;;;;4963043;28;20465;-70
2024/03/02 11:26:59;;;;;;;23.40;22.37;;;21.60;59.70;;;;;;4965385;28;20499;-70
2024/03/02 11:29:44;;;;;;;22.33;21.30;;;21.60;59.60;;;;;;4963320;28;20449;-70
2024/03/02 11:32:19;;;;;;;21.07;20.27;;;21.60;59.50;;;;;;4963081;28;20461;-70
2024/03/02 11:34:47;;;;;;;21.70;20.90;;;21.60;59.50;;;;;;4966091;28;20443;-70
2024/03/02 11:37:14;;;;;;;21.80;20.63;;;21.60;59.70;;;;;;4964874;28;21008;-69
2024/03/02 11:39:44;;;;;;;22.10;21.10;;;21.60;59.90;;;;;;4962614;28;20453;-70
2024/03/02 11:42:13;;;;;;;21.97;21.03;;;21.60;59.80;;;;;;4962706;28;20526;-70
2024/03/02 11:44:42;;;;;;;21.93;20.53;;;21.70;59.90;;;;;;4966164;28;20447;-70
2024/03/02 11:47:14;;;;;;;21.07;20.17;;;21.70;59.90;;;;;;4967107;28;20444;-70
2024/03/02 11:49:42;;;;;;;20.87;20.00;;;21.70;60.60;;;;;;4962621;28;20557;-67
2024/03/02 11:52:11;;;;;;;21.07;20.13;;;21.70;60.30;;;;;;4962188;28;20476;-67
2024/03/02 11:54:40;;;;;;;20.83;19.93;;;21.70;60.60;;;;;;4965917;28;20467;-67
2024/03/02 11:57:09;;;;;;;21.73;20.73;;;21.70;60.60;;;;;;4966193;28;20502;-67
2024/03/02 11:59:36;;;;;;;21.90;20.80;;;21.70;60.90;;;;;;4943274;28;20451;-65
2024/03/02 12:02:03;;;;;;;22.70;21.70;;;21.70;61.40;;;;;;4965748;28;20813;-67
2024/03/02 12:04:31;;;;;;;22.60;21.40;;;21.70;62.40;;;;;;4962632;28;20453;-67
2024/03/02 12:07:00;;;;;;;22.30;21.20;;;21.70;61.30;;;;;;4963673;28;20845;-66
2024/03/02 12:09:28;;;;;;;23.30;22.30;;;21.70;61.80;;;;;;4962320;28;20865;-69
2024/03/02 12:12:04;;;;;;;22.00;21.13;;;21.70;62.70;;;;;;4961506;28;20442;-68
2024/03/02 12:14:34;;;;;;;22.47;21.37;;;21.70;63.40;;;;;;4965475;28;20966;-68
2024/03/02 12:17:01;;;;;;;21.97;21.07;;;21.70;61.90;;;;;;4965558;28;20483;-68
2024/03/02 12:19:29;;;;;;;22.70;21.40;;;21.70;61.40;;;;;;4962819;28;20443;-67
2024/03/02 12:21:56;;;;;;;21.97;21.07;;;21.70;61.30;;;;;;4961530;28;20492;-69
2024/03/02 12:24:24;;;;;;;21.70;20.80;;;21.70;61.10;;;;;;4964043;28;20514;-68
2024/03/02 12:26:52;;;;;;;22.20;21.20;;;21.70;61.40;;;;;;4965399;28;20451;-65
2024/03/02 12:29:20;;;;;;;21.80;20.90;;;21.80;61.20;;;;;;4964085;28;20456;-66
2024/03/02 12:31:49;;;;;;;21.37;20.20;;;21.70;58.90;;;;;;4961372;28;20448;-70
2024/03/02 12:34:17;;;;;;;21.47;20.43;;;21.80;58.60;;;;;;4962536;28;20440;-68
2024/03/02 12:36:47;;;;;;;21.47;20.53;;;21.80;59.00;;;;;;4965015;28;20510;-68